sensor_id;sensor_type;location;lat;lon;timestamp;P1;durP1;ratioP1;P2;durP2;ratioP2
11267;SDS011;49397;47.474;9.416;2022-07-29T00:01:18;2.20;;;2.00;;
11267;SDS011;49397;47.474;9.416;2022-07-29T00:03:43;2.13;;;2.03;;
11267;SDS011;49397;47.474;9.416;2022-07-29T00:06:09;2.87;;;2.67;;
11267;SDS011;49397;47.474;9.416;2022-07-29T00:08:34;2.10;;;2.00;;
11267;SDS011;49397;47.474;9.416;2022-07-29T00:11:00;2.73;;;2.53;;
11267;SDS011;49397;47.474;9.416;2022-07-29T00:13:25;2.80;;;2.60;;
11267;SDS011;49397;47.474;9.416;2022-07-29T00:15:51;2.50;;;2.30;;
11267;SDS011;49397;47.474;9.416;2022-07-29T00:18:16;2.27;;;2.07;;
11267;SDS011;49397;47.474;9.416;2022-07-29T00:20:42;3.83;;;2.20;;
11267;SDS011;49397;47.474;9.416;2022-07-29T00:23:07;2.90;;;2.40;;
11267;SDS011;49397;47.474;9.416;2022-07-29T00:25:33;3.27;;;2.10;;
11267;SDS011;49397;47.474;9.416;2022-07-29T00:27:58;2.43;;;2.23;;
11267;SDS011;49397;47.474;9.416;2022-07-29T00:30:24;2.10;;;2.00;;
11267;SDS011;49397;47.474;9.416;2022-07-29T00:32:49;2.90;;;2.03;;
11267;SDS011;49397;47.474;9.416;2022-07-29T00:35:15;2.20;;;2.00;;
11267;SDS011;49397;47.474;9.416;2022-07-29T00:37:59;2.20;;;2.10;;
11267;SDS011;49397;47.474;9.416;2022-07-29T00:40:24;2.53;;;2.30;;
11267;SDS011;49397;47.474;9.416;2022-07-29T00:42:50;2.17;;;2.07;;
11267;SDS011;49397;47.474;9.416;2022-07-29T00:45:17;2.07;;;1.97;;
11267;SDS011;49397;47.474;9.416;2022-07-29T00:47:43;2.60;;;2.40;;
11267;SDS011;49397;47.474;9.416;2022-07-29T00:50:10;2.30;;;2.20;;
11267;SDS011;49397;47.474;9.416;2022-07-29T00:52:37;2.70;;;2.50;;
11267;SDS011;49397;47.474;9.416;2022-07-29T00:55:04;2.23;;;2.10;;
11267;SDS011;49397;47.474;9.416;2022-07-29T00:57:31;2.10;;;1.73;;
11267;SDS011;49397;47.474;9.416;2022-07-29T00:59:57;3.43;;;2.37;;
11267;SDS011;49397;47.474;9.416;2022-07-29T01:02:23;2.17;;;2.00;;
11267;SDS011;49397;47.474;9.416;2022-07-29T01:04:48;2.60;;;2.17;;
11267;SDS011;49397;47.474;9.416;2022-07-29T01:07:14;2.50;;;2.30;;
11267;SDS011;49397;47.474;9.416;2022-07-29T01:09:41;4.50;;;2.40;;
11267;SDS011;49397;47.474;9.416;2022-07-29T01:12:07;2.30;;;2.20;;
11267;SDS011;49397;47.474;9.416;2022-07-29T01:14:33;2.33;;;2.20;;
11267;SDS011;49397;47.474;9.416;2022-07-29T01:17:02;2.50;;;2.40;;
11267;SDS011;49397;47.474;9.416;2022-07-29T01:22:13;2.40;;;2.23;;
11267;SDS011;49397;47.474;9.416;2022-07-29T01:28:01;2.73;;;1.90;;
11267;SDS011;49397;47.474;9.416;2022-07-29T01:30:42;2.43;;;2.20;;
11267;SDS011;49397;47.474;9.416;2022-07-29T01:33:11;2.30;;;2.20;;
11267;SDS011;49397;47.474;9.416;2022-07-29T01:36:01;2.60;;;2.40;;
11267;SDS011;49397;47.474;9.416;2022-07-29T01:38:35;2.50;;;2.30;;
11267;SDS011;49397;47.474;9.416;2022-07-29T01:41:12;2.97;;;2.50;;
11267;SDS011;49397;47.474;9.416;2022-07-29T01:43:48;2.27;;;2.07;;
11267;SDS011;49397;47.474;9.416;2022-07-29T01:46:24;2.47;;;2.27;;
11267;SDS011;49397;47.474;9.416;2022-07-29T01:49:08;2.07;;;1.97;;
11267;SDS011;49397;47.474;9.416;2022-07-29T01:51:46;2.30;;;2.10;;
11267;SDS011;49397;47.474;9.416;2022-07-29T01:54:26;2.20;;;2.10;;
11267;SDS011;49397;47.474;9.416;2022-07-29T01:56:57;3.60;;;2.87;;
11267;SDS011;49397;47.474;9.416;2022-07-29T01:59:25;2.53;;;2.33;;
11267;SDS011;49397;47.474;9.416;2022-07-29T02:01:52;2.40;;;2.30;;
11267;SDS011;49397;47.474;9.416;2022-07-29T02:04:19;2.50;;;2.30;;
11267;SDS011;49397;47.474;9.416;2022-07-29T02:06:45;2.30;;;2.20;;
11267;SDS011;49397;47.474;9.416;2022-07-29T02:09:15;2.97;;;2.70;;
11267;SDS011;49397;47.474;9.416;2022-07-29T02:11:47;2.27;;;2.17;;
11267;SDS011;49397;47.474;9.416;2022-07-29T02:14:15;2.20;;;2.10;;
11267;SDS011;49397;47.474;9.416;2022-07-29T02:16:43;2.40;;;2.17;;
11267;SDS011;49397;47.474;9.416;2022-07-29T02:19:12;3.03;;;2.30;;
11267;SDS011;49397;47.474;9.416;2022-07-29T02:21:39;2.23;;;2.13;;
11267;SDS011;49397;47.474;9.416;2022-07-29T02:24:05;3.03;;;2.57;;
11267;SDS011;49397;47.474;9.416;2022-07-29T02:26:36;2.60;;;2.40;;
11267;SDS011;49397;47.474;9.416;2022-07-29T02:29:05;2.67;;;2.47;;
11267;SDS011;49397;47.474;9.416;2022-07-29T02:31:34;3.37;;;2.53;;
11267;SDS011;49397;47.474;9.416;2022-07-29T02:34:02;2.73;;;2.53;;
11267;SDS011;49397;47.474;9.416;2022-07-29T02:36:29;3.33;;;2.80;;
11267;SDS011;49397;47.474;9.416;2022-07-29T02:38:56;2.70;;;2.40;;
11267;SDS011;49397;47.474;9.416;2022-07-29T02:41:44;2.80;;;2.60;;
11267;SDS011;49397;47.474;9.416;2022-07-29T02:44:24;2.93;;;2.40;;
11267;SDS011;49397;47.474;9.416;2022-07-29T02:46:57;2.77;;;2.57;;
11267;SDS011;49397;47.474;9.416;2022-07-29T02:49:37;3.80;;;3.50;;
11267;SDS011;49397;47.474;9.416;2022-07-29T02:54:39;3.00;;;2.80;;
11267;SDS011;49397;47.474;9.416;2022-07-29T02:57:11;4.80;;;2.50;;
11267;SDS011;49397;47.474;9.416;2022-07-29T02:59:53;3.23;;;2.50;;
11267;SDS011;49397;47.474;9.416;2022-07-29T03:02:23;3.60;;;2.73;;
11267;SDS011;49397;47.474;9.416;2022-07-29T03:04:52;3.93;;;2.87;;
11267;SDS011;49397;47.474;9.416;2022-07-29T03:07:19;2.70;;;2.60;;
11267;SDS011;49397;47.474;9.416;2022-07-29T03:09:46;3.20;;;2.90;;
11267;SDS011;49397;47.474;9.416;2022-07-29T03:12:12;5.70;;;3.10;;
11267;SDS011;49397;47.474;9.416;2022-07-29T03:14:39;3.33;;;3.03;;
11267;SDS011;49397;47.474;9.416;2022-07-29T03:17:06;2.83;;;2.60;;
11267;SDS011;49397;47.474;9.416;2022-07-29T03:19:32;5.57;;;3.00;;
11267;SDS011;49397;47.474;9.416;2022-07-29T03:21:59;3.00;;;2.63;;
11267;SDS011;49397;47.474;9.416;2022-07-29T03:24:25;3.30;;;3.00;;
11267;SDS011;49397;47.474;9.416;2022-07-29T03:26:52;2.93;;;2.50;;
11267;SDS011;49397;47.474;9.416;2022-07-29T03:29:17;3.33;;;2.73;;
11267;SDS011;49397;47.474;9.416;2022-07-29T03:31:43;4.47;;;2.70;;
11267;SDS011;49397;47.474;9.416;2022-07-29T03:34:08;3.70;;;2.30;;
11267;SDS011;49397;47.474;9.416;2022-07-29T03:36:34;2.80;;;2.60;;
11267;SDS011;49397;47.474;9.416;2022-07-29T03:38:59;2.80;;;2.60;;
11267;SDS011;49397;47.474;9.416;2022-07-29T03:41:26;3.83;;;3.20;;
11267;SDS011;49397;47.474;9.416;2022-07-29T03:43:52;2.87;;;2.67;;
11267;SDS011;49397;47.474;9.416;2022-07-29T03:46:20;3.23;;;2.77;;
11267;SDS011;49397;47.474;9.416;2022-07-29T03:48:48;3.57;;;2.93;;
11267;SDS011;49397;47.474;9.416;2022-07-29T03:51:17;3.40;;;3.10;;
11267;SDS011;49397;47.474;9.416;2022-07-29T03:53:43;4.13;;;3.00;;
11267;SDS011;49397;47.474;9.416;2022-07-29T03:56:09;6.50;;;2.90;;
11267;SDS011;49397;47.474;9.416;2022-07-29T03:58:40;2.70;;;2.50;;
11267;SDS011;49397;47.474;9.416;2022-07-29T04:01:06;3.20;;;2.90;;
11267;SDS011;49397;47.474;9.416;2022-07-29T04:03:33;2.90;;;2.70;;
11267;SDS011;49397;47.474;9.416;2022-07-29T04:06:00;4.63;;;2.90;;
11267;SDS011;49397;47.474;9.416;2022-07-29T04:08:27;3.13;;;2.80;;
11267;SDS011;49397;47.474;9.416;2022-07-29T04:10:52;3.60;;;2.90;;
11267;SDS011;49397;47.474;9.416;2022-07-29T04:13:18;7.97;;;2.70;;
11267;SDS011;49397;47.474;9.416;2022-07-29T04:15:45;3.20;;;2.60;;
11267;SDS011;49397;47.474;9.416;2022-07-29T04:18:10;3.33;;;2.87;;
11267;SDS011;49397;47.474;9.416;2022-07-29T04:20:36;3.57;;;2.73;;
11267;SDS011;49397;47.474;9.416;2022-07-29T04:23:01;3.10;;;2.83;;
11267;SDS011;49397;47.474;9.416;2022-07-29T04:25:27;3.63;;;2.93;;
11267;SDS011;49397;47.474;9.416;2022-07-29T04:27:52;3.50;;;2.80;;
11267;SDS011;49397;47.474;9.416;2022-07-29T04:30:28;3.23;;;3.00;;
11267;SDS011;49397;47.474;9.416;2022-07-29T04:32:54;3.43;;;3.10;;
11267;SDS011;49397;47.474;9.416;2022-07-29T04:35:20;3.17;;;2.90;;
11267;SDS011;49397;47.474;9.416;2022-07-29T04:37:46;4.83;;;2.90;;
11267;SDS011;49397;47.474;9.416;2022-07-29T04:40:12;4.43;;;2.70;;
11267;SDS011;49397;47.474;9.416;2022-07-29T04:42:37;3.33;;;3.03;;
11267;SDS011;49397;47.474;9.416;2022-07-29T04:45:03;5.37;;;3.30;;
11267;SDS011;49397;47.474;9.416;2022-07-29T04:47:29;3.43;;;3.13;;
11267;SDS011;49397;47.474;9.416;2022-07-29T04:49:55;4.20;;;2.97;;
11267;SDS011;49397;47.474;9.416;2022-07-29T04:52:21;3.37;;;3.17;;
11267;SDS011;49397;47.474;9.416;2022-07-29T04:54:47;4.80;;;3.20;;
11267;SDS011;49397;47.474;9.416;2022-07-29T04:57:13;3.20;;;2.87;;
11267;SDS011;49397;47.474;9.416;2022-07-29T04:59:38;3.17;;;2.87;;
11267;SDS011;49397;47.474;9.416;2022-07-29T05:02:04;3.90;;;3.60;;
11267;SDS011;49397;47.474;9.416;2022-07-29T05:04:29;3.37;;;3.10;;
11267;SDS011;49397;47.474;9.416;2022-07-29T05:06:55;3.17;;;2.83;;
11267;SDS011;49397;47.474;9.416;2022-07-29T05:09:20;3.23;;;2.93;;
11267;SDS011;49397;47.474;9.416;2022-07-29T05:11:46;3.80;;;2.90;;
11267;SDS011;49397;47.474;9.416;2022-07-29T05:14:11;4.00;;;3.60;;
11267;SDS011;49397;47.474;9.416;2022-07-29T05:16:37;5.57;;;3.33;;
11267;SDS011;49397;47.474;9.416;2022-07-29T05:19:04;2.73;;;2.53;;
11267;SDS011;49397;47.474;9.416;2022-07-29T05:21:29;3.73;;;3.13;;
11267;SDS011;49397;47.474;9.416;2022-07-29T05:23:55;3.07;;;2.87;;
11267;SDS011;49397;47.474;9.416;2022-07-29T05:26:20;3.37;;;3.10;;
11267;SDS011;49397;47.474;9.416;2022-07-29T05:28:45;3.63;;;3.33;;
11267;SDS011;49397;47.474;9.416;2022-07-29T05:31:11;4.20;;;3.10;;
11267;SDS011;49397;47.474;9.416;2022-07-29T05:33:36;3.77;;;3.17;;
11267;SDS011;49397;47.474;9.416;2022-07-29T05:36:05;4.27;;;3.37;;
11267;SDS011;49397;47.474;9.416;2022-07-29T05:38:32;3.70;;;3.40;;
11267;SDS011;49397;47.474;9.416;2022-07-29T05:40:58;3.20;;;2.90;;
11267;SDS011;49397;47.474;9.416;2022-07-29T05:43:25;3.83;;;3.53;;
11267;SDS011;49397;47.474;9.416;2022-07-29T05:45:52;3.33;;;3.03;;
11267;SDS011;49397;47.474;9.416;2022-07-29T05:48:17;3.90;;;3.50;;
11267;SDS011;49397;47.474;9.416;2022-07-29T05:50:42;3.70;;;3.40;;
11267;SDS011;49397;47.474;9.416;2022-07-29T05:53:08;4.70;;;3.83;;
11267;SDS011;49397;47.474;9.416;2022-07-29T05:55:33;4.77;;;3.50;;
11267;SDS011;49397;47.474;9.416;2022-07-29T05:57:59;3.43;;;3.13;;
11267;SDS011;49397;47.474;9.416;2022-07-29T06:00:25;3.67;;;3.37;;
11267;SDS011;49397;47.474;9.416;2022-07-29T06:02:50;3.67;;;3.33;;
11267;SDS011;49397;47.474;9.416;2022-07-29T06:05:16;3.80;;;3.50;;
11267;SDS011;49397;47.474;9.416;2022-07-29T06:07:42;3.90;;;3.60;;
11267;SDS011;49397;47.474;9.416;2022-07-29T06:10:07;6.33;;;3.57;;
11267;SDS011;49397;47.474;9.416;2022-07-29T06:12:34;4.87;;;3.83;;
11267;SDS011;49397;47.474;9.416;2022-07-29T06:14:59;3.80;;;3.50;;
11267;SDS011;49397;47.474;9.416;2022-07-29T06:17:25;3.63;;;3.33;;
11267;SDS011;49397;47.474;9.416;2022-07-29T06:19:50;3.63;;;3.33;;
11267;SDS011;49397;47.474;9.416;2022-07-29T06:22:16;5.40;;;3.67;;
11267;SDS011;49397;47.474;9.416;2022-07-29T06:24:42;3.73;;;3.43;;
11267;SDS011;49397;47.474;9.416;2022-07-29T06:27:11;4.17;;;3.37;;
11267;SDS011;49397;47.474;9.416;2022-07-29T06:29:37;3.63;;;3.33;;
11267;SDS011;49397;47.474;9.416;2022-07-29T06:32:03;6.07;;;3.40;;
11267;SDS011;49397;47.474;9.416;2022-07-29T06:34:29;6.30;;;3.30;;
11267;SDS011;49397;47.474;9.416;2022-07-29T06:36:54;4.63;;;3.33;;
11267;SDS011;49397;47.474;9.416;2022-07-29T06:39:20;6.23;;;3.20;;
11267;SDS011;49397;47.474;9.416;2022-07-29T06:41:46;3.57;;;3.27;;
11267;SDS011;49397;47.474;9.416;2022-07-29T06:44:14;4.73;;;2.77;;
11267;SDS011;49397;47.474;9.416;2022-07-29T06:46:39;7.07;;;3.10;;
11267;SDS011;49397;47.474;9.416;2022-07-29T06:49:05;3.47;;;3.17;;
11267;SDS011;49397;47.474;9.416;2022-07-29T06:51:30;3.33;;;3.03;;
11267;SDS011;49397;47.474;9.416;2022-07-29T06:53:56;3.67;;;3.27;;
11267;SDS011;49397;47.474;9.416;2022-07-29T06:56:22;3.40;;;3.10;;
11267;SDS011;49397;47.474;9.416;2022-07-29T06:58:48;3.17;;;2.87;;
11267;SDS011;49397;47.474;9.416;2022-07-29T07:01:13;3.93;;;2.90;;
11267;SDS011;49397;47.474;9.416;2022-07-29T07:03:39;3.47;;;2.87;;
11267;SDS011;49397;47.474;9.416;2022-07-29T07:06:04;5.60;;;2.93;;
11267;SDS011;49397;47.474;9.416;2022-07-29T07:08:30;3.43;;;3.20;;
11267;SDS011;49397;47.474;9.416;2022-07-29T07:10:55;3.10;;;2.90;;
11267;SDS011;49397;47.474;9.416;2022-07-29T07:13:22;3.10;;;2.90;;
11267;SDS011;49397;47.474;9.416;2022-07-29T07:15:48;3.07;;;2.80;;
11267;SDS011;49397;47.474;9.416;2022-07-29T07:18:14;3.53;;;2.87;;
11267;SDS011;49397;47.474;9.416;2022-07-29T07:20:41;3.10;;;2.90;;
11267;SDS011;49397;47.474;9.416;2022-07-29T07:23:06;3.00;;;2.80;;
11267;SDS011;49397;47.474;9.416;2022-07-29T07:25:32;5.40;;;3.00;;
11267;SDS011;49397;47.474;9.416;2022-07-29T07:27:58;3.50;;;3.20;;
11267;SDS011;49397;47.474;9.416;2022-07-29T07:30:23;3.60;;;3.23;;
11267;SDS011;49397;47.474;9.416;2022-07-29T07:32:49;7.73;;;3.17;;
11267;SDS011;49397;47.474;9.416;2022-07-29T07:35:14;3.23;;;2.83;;
11267;SDS011;49397;47.474;9.416;2022-07-29T07:37:40;3.20;;;2.90;;
11267;SDS011;49397;47.474;9.416;2022-07-29T07:40:06;3.33;;;3.03;;
11267;SDS011;49397;47.474;9.416;2022-07-29T07:42:33;4.27;;;3.27;;
11267;SDS011;49397;47.474;9.416;2022-07-29T07:44:59;3.30;;;2.90;;
11267;SDS011;49397;47.474;9.416;2022-07-29T07:47:24;3.10;;;2.90;;
11267;SDS011;49397;47.474;9.416;2022-07-29T07:49:50;3.67;;;3.10;;
11267;SDS011;49397;47.474;9.416;2022-07-29T07:52:16;3.07;;;2.77;;
11267;SDS011;49397;47.474;9.416;2022-07-29T07:54:43;4.57;;;3.73;;
11267;SDS011;49397;47.474;9.416;2022-07-29T07:57:10;2.90;;;2.70;;
11267;SDS011;49397;47.474;9.416;2022-07-29T07:59:36;3.43;;;3.13;;
11267;SDS011;49397;47.474;9.416;2022-07-29T08:02:01;5.93;;;3.40;;
11267;SDS011;49397;47.474;9.416;2022-07-29T08:04:27;5.17;;;3.63;;
11267;SDS011;49397;47.474;9.416;2022-07-29T08:06:53;4.00;;;3.70;;
11267;SDS011;49397;47.474;9.416;2022-07-29T08:09:20;3.70;;;3.40;;
11267;SDS011;49397;47.474;9.416;2022-07-29T08:11:46;3.80;;;3.50;;
11267;SDS011;49397;47.474;9.416;2022-07-29T08:14:11;4.10;;;3.20;;
11267;SDS011;49397;47.474;9.416;2022-07-29T08:16:38;3.10;;;2.87;;
11267;SDS011;49397;47.474;9.416;2022-07-29T08:19:05;3.70;;;3.40;;
11267;SDS011;49397;47.474;9.416;2022-07-29T08:21:30;3.63;;;3.00;;
11267;SDS011;49397;47.474;9.416;2022-07-29T08:23:56;3.17;;;2.97;;
11267;SDS011;49397;47.474;9.416;2022-07-29T08:26:42;3.93;;;3.60;;
11267;SDS011;49397;47.474;9.416;2022-07-29T08:29:08;3.30;;;3.00;;
11267;SDS011;49397;47.474;9.416;2022-07-29T08:31:34;4.13;;;3.60;;
11267;SDS011;49397;47.474;9.416;2022-07-29T08:34:01;4.10;;;3.60;;
11267;SDS011;49397;47.474;9.416;2022-07-29T08:36:27;4.03;;;3.73;;
11267;SDS011;49397;47.474;9.416;2022-07-29T08:38:53;4.73;;;3.70;;
11267;SDS011;49397;47.474;9.416;2022-07-29T08:41:19;4.33;;;4.03;;
11267;SDS011;49397;47.474;9.416;2022-07-29T08:43:45;4.20;;;3.90;;
11267;SDS011;49397;47.474;9.416;2022-07-29T08:46:11;4.20;;;3.77;;
11267;SDS011;49397;47.474;9.416;2022-07-29T08:48:37;14.00;;;4.30;;
11267;SDS011;49397;47.474;9.416;2022-07-29T08:51:04;4.40;;;4.00;;
11267;SDS011;49397;47.474;9.416;2022-07-29T08:53:32;4.70;;;4.27;;
11267;SDS011;49397;47.474;9.416;2022-07-29T08:55:58;4.53;;;4.13;;
11267;SDS011;49397;47.474;9.416;2022-07-29T08:58:25;4.93;;;4.53;;
11267;SDS011;49397;47.474;9.416;2022-07-29T09:00:53;5.13;;;4.47;;
11267;SDS011;49397;47.474;9.416;2022-07-29T09:03:20;6.03;;;4.70;;
11267;SDS011;49397;47.474;9.416;2022-07-29T09:05:48;4.50;;;4.10;;
11267;SDS011;49397;47.474;9.416;2022-07-29T09:08:15;4.67;;;4.27;;
11267;SDS011;49397;47.474;9.416;2022-07-29T09:10:42;4.47;;;4.07;;
11267;SDS011;49397;47.474;9.416;2022-07-29T09:13:08;5.40;;;4.60;;
11267;SDS011;49397;47.474;9.416;2022-07-29T09:15:34;4.43;;;4.03;;
11267;SDS011;49397;47.474;9.416;2022-07-29T09:17:59;5.63;;;4.37;;
11267;SDS011;49397;47.474;9.416;2022-07-29T09:20:26;5.30;;;4.50;;
11267;SDS011;49397;47.474;9.416;2022-07-29T09:23:12;5.60;;;5.10;;
11267;SDS011;49397;47.474;9.416;2022-07-29T09:25:39;5.23;;;4.80;;
11267;SDS011;49397;47.474;9.416;2022-07-29T09:28:13;10.50;;;5.50;;
11267;SDS011;49397;47.474;9.416;2022-07-29T09:33:17;4.93;;;4.50;;
11267;SDS011;49397;47.474;9.416;2022-07-29T09:35:43;4.80;;;4.40;;
11267;SDS011;49397;47.474;9.416;2022-07-29T09:38:12;5.53;;;4.30;;
11267;SDS011;49397;47.474;9.416;2022-07-29T09:40:38;5.30;;;4.80;;
11267;SDS011;49397;47.474;9.416;2022-07-29T09:43:11;5.00;;;4.50;;
11267;SDS011;49397;47.474;9.416;2022-07-29T09:45:37;4.30;;;3.90;;
11267;SDS011;49397;47.474;9.416;2022-07-29T09:48:13;3.73;;;3.43;;
11267;SDS011;49397;47.474;9.416;2022-07-29T09:50:43;3.77;;;3.47;;
11267;SDS011;49397;47.474;9.416;2022-07-29T09:53:10;3.37;;;3.17;;
11267;SDS011;49397;47.474;9.416;2022-07-29T09:55:48;3.43;;;3.07;;
11267;SDS011;49397;47.474;9.416;2022-07-29T09:58:15;4.13;;;2.90;;
11267;SDS011;49397;47.474;9.416;2022-07-29T10:00:43;3.53;;;3.00;;
11267;SDS011;49397;47.474;9.416;2022-07-29T10:03:10;3.03;;;2.83;;
11267;SDS011;49397;47.474;9.416;2022-07-29T10:05:36;3.90;;;3.10;;
11267;SDS011;49397;47.474;9.416;2022-07-29T10:08:02;3.60;;;3.30;;
11267;SDS011;49397;47.474;9.416;2022-07-29T10:10:30;3.97;;;3.47;;
11267;SDS011;49397;47.474;9.416;2022-07-29T10:13:00;4.87;;;3.90;;
11267;SDS011;49397;47.474;9.416;2022-07-29T10:15:28;3.60;;;3.30;;
11267;SDS011;49397;47.474;9.416;2022-07-29T10:17:57;2.83;;;2.63;;
11267;SDS011;49397;47.474;9.416;2022-07-29T10:20:23;3.53;;;3.20;;
11267;SDS011;49397;47.474;9.416;2022-07-29T10:22:50;4.10;;;3.13;;
11267;SDS011;49397;47.474;9.416;2022-07-29T10:25:16;3.90;;;3.60;;
11267;SDS011;49397;47.474;9.416;2022-07-29T10:27:44;3.63;;;3.33;;
11267;SDS011;49397;47.474;9.416;2022-07-29T10:30:10;7.53;;;4.10;;
11267;SDS011;49397;47.474;9.416;2022-07-29T10:44:12;6.23;;;4.90;;
11267;SDS011;49397;47.474;9.416;2022-07-29T10:46:42;6.03;;;5.17;;
11267;SDS011;49397;47.474;9.416;2022-07-29T10:54:17;5.83;;;5.23;;
11267;SDS011;49397;47.474;9.416;2022-07-29T10:56:44;9.43;;;5.80;;
11267;SDS011;49397;47.474;9.416;2022-07-29T11:01:44;6.40;;;5.73;;
11267;SDS011;49397;47.474;9.416;2022-07-29T11:04:10;7.20;;;6.50;;
11267;SDS011;49397;47.474;9.416;2022-07-29T11:09:27;8.60;;;7.80;;
11267;SDS011;49397;47.474;9.416;2022-07-29T11:11:55;7.40;;;6.67;;
11267;SDS011;49397;47.474;9.416;2022-07-29T11:17:25;7.23;;;6.40;;
11267;SDS011;49397;47.474;9.416;2022-07-29T11:19:51;7.23;;;6.53;;
11267;SDS011;49397;47.474;9.416;2022-07-29T11:22:37;7.17;;;6.50;;
11267;SDS011;49397;47.474;9.416;2022-07-29T11:25:12;8.10;;;7.30;;
11267;SDS011;49397;47.474;9.416;2022-07-29T11:27:41;7.87;;;6.77;;
11267;SDS011;49397;47.474;9.416;2022-07-29T11:30:07;7.13;;;6.13;;
11267;SDS011;49397;47.474;9.416;2022-07-29T11:32:37;7.70;;;7.00;;
11267;SDS011;49397;47.474;9.416;2022-07-29T11:35:23;7.23;;;6.60;;
11267;SDS011;49397;47.474;9.416;2022-07-29T11:43:50;8.97;;;7.00;;
11267;SDS011;49397;47.474;9.416;2022-07-29T11:46:18;6.63;;;6.03;;
11267;SDS011;49397;47.474;9.416;2022-07-29T11:49:19;7.87;;;6.43;;
11267;SDS011;49397;47.474;9.416;2022-07-29T11:51:56;5.90;;;5.37;;
11267;SDS011;49397;47.474;9.416;2022-07-29T11:54:26;6.37;;;5.60;;
11267;SDS011;49397;47.474;9.416;2022-07-29T11:56:56;7.57;;;6.27;;
11267;SDS011;49397;47.474;9.416;2022-07-29T11:59:23;6.03;;;5.37;;
11267;SDS011;49397;47.474;9.416;2022-07-29T12:01:53;8.07;;;6.60;;
11267;SDS011;49397;47.474;9.416;2022-07-29T12:04:24;6.87;;;6.17;;
11267;SDS011;49397;47.474;9.416;2022-07-29T12:06:55;6.73;;;6.07;;
11267;SDS011;49397;47.474;9.416;2022-07-29T12:09:22;5.60;;;5.10;;
11267;SDS011;49397;47.474;9.416;2022-07-29T12:11:49;8.37;;;7.17;;
11267;SDS011;49397;47.474;9.416;2022-07-29T12:14:31;8.37;;;6.73;;
11267;SDS011;49397;47.474;9.416;2022-07-29T12:16:58;6.43;;;5.60;;
11267;SDS011;49397;47.474;9.416;2022-07-29T12:19:25;9.03;;;5.67;;
11267;SDS011;49397;47.474;9.416;2022-07-29T12:21:53;6.00;;;5.50;;
11267;SDS011;49397;47.474;9.416;2022-07-29T12:24:19;6.47;;;5.80;;
11267;SDS011;49397;47.474;9.416;2022-07-29T12:27:04;7.27;;;6.57;;
11267;SDS011;49397;47.474;9.416;2022-07-29T12:29:29;6.23;;;5.63;;
11267;SDS011;49397;47.474;9.416;2022-07-29T12:31:55;6.10;;;5.30;;
11267;SDS011;49397;47.474;9.416;2022-07-29T12:34:25;6.80;;;6.10;;
11267;SDS011;49397;47.474;9.416;2022-07-29T12:36:53;6.63;;;5.93;;
11267;SDS011;49397;47.474;9.416;2022-07-29T12:39:20;6.73;;;6.13;;
11267;SDS011;49397;47.474;9.416;2022-07-29T12:41:46;7.73;;;6.67;;
11267;SDS011;49397;47.474;9.416;2022-07-29T12:44:11;7.43;;;6.70;;
11267;SDS011;49397;47.474;9.416;2022-07-29T12:46:37;7.67;;;6.97;;
11267;SDS011;49397;47.474;9.416;2022-07-29T12:49:03;6.97;;;6.27;;
11267;SDS011;49397;47.474;9.416;2022-07-29T12:54:05;7.67;;;6.87;;
11267;SDS011;49397;47.474;9.416;2022-07-29T12:56:36;7.30;;;6.27;;
11267;SDS011;49397;47.474;9.416;2022-07-29T12:59:16;7.77;;;6.50;;
11267;SDS011;49397;47.474;9.416;2022-07-29T13:01:43;6.90;;;6.30;;
11267;SDS011;49397;47.474;9.416;2022-07-29T13:04:09;6.43;;;5.83;;
11267;SDS011;49397;47.474;9.416;2022-07-29T13:06:41;5.97;;;5.37;;
11267;SDS011;49397;47.474;9.416;2022-07-29T13:09:12;6.17;;;5.57;;
11267;SDS011;49397;47.474;9.416;2022-07-29T13:14:13;7.73;;;6.70;;
11267;SDS011;49397;47.474;9.416;2022-07-29T13:19:50;8.27;;;6.83;;
11267;SDS011;49397;47.474;9.416;2022-07-29T13:22:17;6.67;;;5.87;;
11267;SDS011;49397;47.474;9.416;2022-07-29T13:24:45;6.97;;;5.90;;
11267;SDS011;49397;47.474;9.416;2022-07-29T13:27:17;7.37;;;6.03;;
11267;SDS011;49397;47.474;9.416;2022-07-29T13:29:44;6.93;;;5.37;;
11267;SDS011;49397;47.474;9.416;2022-07-29T13:32:10;8.30;;;6.53;;
11267;SDS011;49397;47.474;9.416;2022-07-29T13:34:36;7.63;;;6.10;;
11267;SDS011;49397;47.474;9.416;2022-07-29T13:37:02;5.80;;;5.20;;
11267;SDS011;49397;47.474;9.416;2022-07-29T13:39:27;5.90;;;5.37;;
11267;SDS011;49397;47.474;9.416;2022-07-29T13:41:53;5.23;;;4.20;;
11267;SDS011;49397;47.474;9.416;2022-07-29T13:44:19;3.60;;;3.00;;
11267;SDS011;49397;47.474;9.416;2022-07-29T13:46:44;4.47;;;3.40;;
11267;SDS011;49397;47.474;9.416;2022-07-29T13:49:10;4.03;;;3.73;;
11267;SDS011;49397;47.474;9.416;2022-07-29T13:51:36;3.90;;;3.60;;
11267;SDS011;49397;47.474;9.416;2022-07-29T13:54:02;3.87;;;3.57;;
11267;SDS011;49397;47.474;9.416;2022-07-29T13:56:28;3.27;;;2.97;;
11267;SDS011;49397;47.474;9.416;2022-07-29T13:58:53;3.60;;;3.30;;
11267;SDS011;49397;47.474;9.416;2022-07-29T14:01:19;3.40;;;3.10;;
11267;SDS011;49397;47.474;9.416;2022-07-29T14:03:44;3.40;;;3.20;;
11267;SDS011;49397;47.474;9.416;2022-07-29T14:06:10;3.60;;;3.30;;
11267;SDS011;49397;47.474;9.416;2022-07-29T14:08:35;3.73;;;3.43;;
11267;SDS011;49397;47.474;9.416;2022-07-29T14:11:01;3.80;;;3.50;;
11267;SDS011;49397;47.474;9.416;2022-07-29T14:13:26;3.70;;;3.37;;
11267;SDS011;49397;47.474;9.416;2022-07-29T14:15:52;5.40;;;3.37;;
11267;SDS011;49397;47.474;9.416;2022-07-29T14:18:17;3.97;;;3.70;;
11267;SDS011;49397;47.474;9.416;2022-07-29T14:20:43;3.50;;;3.20;;
11267;SDS011;49397;47.474;9.416;2022-07-29T14:23:09;3.63;;;3.33;;
11267;SDS011;49397;47.474;9.416;2022-07-29T14:25:34;3.93;;;3.63;;
11267;SDS011;49397;47.474;9.416;2022-07-29T14:28:00;3.90;;;3.50;;
11267;SDS011;49397;47.474;9.416;2022-07-29T14:30:25;3.50;;;3.30;;
11267;SDS011;49397;47.474;9.416;2022-07-29T14:32:51;3.40;;;3.10;;
11267;SDS011;49397;47.474;9.416;2022-07-29T14:35:17;3.50;;;3.20;;
11267;SDS011;49397;47.474;9.416;2022-07-29T14:37:42;3.23;;;3.03;;
11267;SDS011;49397;47.474;9.416;2022-07-29T14:40:08;3.50;;;3.20;;
11267;SDS011;49397;47.474;9.416;2022-07-29T14:42:35;3.57;;;2.87;;
11267;SDS011;49397;47.474;9.416;2022-07-29T14:45:02;3.13;;;2.93;;
11267;SDS011;49397;47.474;9.416;2022-07-29T14:47:28;3.83;;;3.50;;
11267;SDS011;49397;47.474;9.416;2022-07-29T14:49:53;3.90;;;3.60;;
11267;SDS011;49397;47.474;9.416;2022-07-29T14:52:18;3.47;;;2.97;;
11267;SDS011;49397;47.474;9.416;2022-07-29T14:54:44;3.30;;;3.00;;
11267;SDS011;49397;47.474;9.416;2022-07-29T14:57:09;3.87;;;3.57;;
11267;SDS011;49397;47.474;9.416;2022-07-29T14:59:36;5.27;;;3.43;;
11267;SDS011;49397;47.474;9.416;2022-07-29T15:02:01;3.50;;;3.20;;
11267;SDS011;49397;47.474;9.416;2022-07-29T15:04:27;4.17;;;3.43;;
11267;SDS011;49397;47.474;9.416;2022-07-29T15:06:53;5.07;;;3.30;;
11267;SDS011;49397;47.474;9.416;2022-07-29T15:09:18;3.53;;;3.10;;
11267;SDS011;49397;47.474;9.416;2022-07-29T15:11:43;3.40;;;3.20;;
11267;SDS011;49397;47.474;9.416;2022-07-29T15:14:09;5.77;;;3.70;;
11267;SDS011;49397;47.474;9.416;2022-07-29T15:16:35;3.10;;;2.90;;
11267;SDS011;49397;47.474;9.416;2022-07-29T15:19:03;4.70;;;3.10;;
11267;SDS011;49397;47.474;9.416;2022-07-29T15:21:29;3.63;;;3.17;;
11267;SDS011;49397;47.474;9.416;2022-07-29T15:23:54;4.33;;;3.20;;
11267;SDS011;49397;47.474;9.416;2022-07-29T15:26:20;3.70;;;3.33;;
11267;SDS011;49397;47.474;9.416;2022-07-29T15:28:45;3.77;;;3.30;;
11267;SDS011;49397;47.474;9.416;2022-07-29T15:31:11;4.23;;;3.93;;
11267;SDS011;49397;47.474;9.416;2022-07-29T15:33:37;4.20;;;3.90;;
11267;SDS011;49397;47.474;9.416;2022-07-29T15:36:02;4.20;;;3.50;;
11267;SDS011;49397;47.474;9.416;2022-07-29T15:38:29;4.87;;;3.27;;
11267;SDS011;49397;47.474;9.416;2022-07-29T15:40:55;3.87;;;3.20;;